createdAt,value
2022-10-29T00:01:23.702Z,102102.63
2022-10-29T00:06:23.966Z,102113.63
2022-10-29T00:11:23.654Z,102113.91
2022-10-29T00:16:26.173Z,102114.91
2022-10-29T00:21:27.866Z,102108.59
2022-10-29T00:26:30.482Z,102114.75
2022-10-29T00:31:29.467Z,102112.97
2022-10-29T00:36:33.422Z,102103.31
2022-10-29T00:41:32.317Z,102111.19
2022-10-29T00:53:43.203Z,102103.22
2022-10-29T00:58:42.375Z,102102.53
2022-10-29T01:03:41.694Z,102102.81
2022-10-29T01:08:42.168Z,102088.69
2022-10-29T01:13:58.905Z,102089.81
2022-10-29T01:19:07.004Z,102089.97
2022-10-29T01:24:56.059Z,102083.47
2022-10-29T01:30:07.207Z,102093.13
2022-10-29T01:35:16.488Z,102082.63
2022-10-29T01:40:22.859Z,102081.88
2022-10-29T01:45:28.249Z,102074.09
2022-10-29T01:50:29.553Z,102077.72
2022-10-29T01:55:34.047Z,102066.53
2022-10-29T02:00:39.191Z,102063.22
2022-10-29T02:05:49.940Z,102053.75
2022-10-29T02:10:55.928Z,102052.44
2022-10-29T02:15:57.803Z,102047.59
2022-10-29T02:20:57.996Z,102046.34
2022-10-29T02:25:57.118Z,102042.25
2022-10-29T02:30:55.996Z,102043.81
2022-10-29T02:35:55.218Z,102038.19
2022-10-29T02:40:55.476Z,102036.72
2022-10-29T02:46:12.818Z,102039.66
2022-10-29T02:51:12.037Z,102047.13
2022-10-29T02:56:12.752Z,102047.47
2022-10-29T03:01:11.939Z,102045.03
2022-10-29T03:07:01.722Z,102039.91
2022-10-29T03:12:05.504Z,102042.13
2022-10-29T03:17:06.526Z,102039.66
2022-10-29T03:22:05.372Z,102035.53
2022-10-29T03:27:05.826Z,102040.00
2022-10-29T03:32:04.689Z,102017.47
2022-10-29T03:37:03.836Z,102027.22
2022-10-29T03:42:04.224Z,102023.72
2022-10-29T03:47:06.979Z,102018.69
2022-10-29T03:52:06.104Z,102009.31
2022-10-29T03:57:05.447Z,102009.41
2022-10-29T04:02:07.619Z,102011.91
2022-10-29T04:07:06.625Z,102006.44
2022-10-29T04:12:06.339Z,102009.91
2022-10-29T04:17:06.715Z,102013.41
2022-10-29T04:32:47.129Z,102008.34
2022-10-29T04:37:46.175Z,102005.78
2022-10-29T04:42:45.057Z,102012.06
2022-10-29T04:47:45.640Z,102008.63
2022-10-29T04:52:44.526Z,102012.13
2022-10-29T04:57:43.727Z,102012.91
2022-10-29T05:02:42.548Z,102007.63
2022-10-29T05:07:42.925Z,102011.97
2022-10-29T05:12:42.195Z,102016.31
2022-10-29T05:17:41.002Z,102011.81
2022-10-29T05:22:39.723Z,102016.72
2022-10-29T05:27:39.872Z,102020.53
2022-10-29T05:32:41.827Z,102027.47
2022-10-29T05:37:44.236Z,102030.47
2022-10-29T05:42:47.543Z,102044.78
2022-10-29T05:47:50.218Z,102051.09
2022-10-29T05:52:57.892Z,102052.03
2022-10-29T05:57:59.844Z,102063.31
2022-10-29T06:02:59.738Z,102059.59
2022-10-29T06:08:01.558Z,102061.94
2022-10-29T06:13:04.164Z,102059.91
2022-10-29T06:18:03.347Z,102064.84
2022-10-29T06:23:02.344Z,102058.59
2022-10-29T06:28:04.656Z,102064.41
2022-10-29T06:33:05.654Z,102065.19
2022-10-29T06:38:10.849Z,102066.81
2022-10-29T06:43:13.931Z,102062.06
2022-10-29T06:48:14.570Z,102066.50
2022-10-29T06:53:16.547Z,102076.84
2022-10-29T06:58:18.944Z,102079.25
2022-10-29T07:03:20.204Z,102079.00
2022-10-29T07:08:19.219Z,102085.66
2022-10-29T07:13:19.593Z,102089.56
2022-10-29T07:18:18.692Z,102086.59
2022-10-29T07:23:17.992Z,102095.06
2022-10-29T07:28:21.018Z,102093.09
2022-10-29T07:33:20.047Z,102093.34
2022-10-29T07:38:19.393Z,102084.31
2022-10-29T07:43:21.221Z,102087.63
2022-10-29T07:48:23.132Z,102082.63
2022-10-29T07:53:21.941Z,102084.38
2022-10-29T07:58:22.795Z,102081.44
2022-10-29T08:03:21.694Z,102076.47
2022-10-29T08:08:22.326Z,102077.94
2022-10-29T08:13:22.636Z,102073.06
2022-10-29T08:18:21.655Z,102066.75
2022-10-29T08:23:22.609Z,102065.63
2022-10-29T08:28:25.770Z,102067.94
2022-10-29T08:33:25.242Z,102058.88
2022-10-29T08:38:24.636Z,102062.75
2022-10-29T08:43:48.438Z,102058.22
2022-10-29T08:48:52.893Z,102047.53
2022-10-29T08:54:24.899Z,102032.25
2022-10-29T08:59:18.180Z,102041.78
2022-10-29T09:04:25.041Z,102030.53
2022-10-29T09:09:32.660Z,102032.28
2022-10-29T09:14:50.108Z,102026.59
2022-10-29T09:20:16.312Z,102010.84
2022-10-29T09:25:20.476Z,102006.44
2022-10-29T09:30:23.022Z,102001.09
2022-10-29T09:35:24.821Z,102005.19
2022-10-29T09:40:33.700Z,101996.38
2022-10-29T09:45:46.672Z,101991.38
2022-10-29T09:50:53.974Z,101982.75
2022-10-29T09:55:54.025Z,101977.16
2022-10-29T10:07:01.866Z,101967.19
2022-10-29T10:12:00.911Z,101964.84
2022-10-29T10:17:02.866Z,101950.44
2022-10-29T10:22:03.982Z,101944.47
2022-10-29T10:27:03.548Z,101930.47
2022-10-29T10:32:17.817Z,101916.13
2022-10-29T10:37:20.247Z,101905.69
2022-10-29T10:42:23.889Z,101896.94
2022-10-29T10:47:28.914Z,101898.88
2022-10-29T10:52:32.107Z,101888.75
2022-10-29T10:57:36.520Z,101881.63
2022-10-29T11:02:49.186Z,101884.38
2022-10-29T11:07:56.319Z,101879.69
2022-10-29T11:12:57.992Z,101881.34
2022-10-29T11:18:04.285Z,101865.72
2022-10-29T11:23:22.364Z,101860.84
2022-10-29T11:28:27.839Z,101854.06
2022-10-29T11:33:37.357Z,101849.75
2022-10-29T11:38:46.731Z,101826.88
2022-10-29T11:43:48.231Z,101821.09
2022-10-29T11:48:57.867Z,101816.66
2022-10-29T11:54:02.636Z,101815.91
2022-10-29T11:59:07.723Z,101803.56
2022-10-29T12:04:24.463Z,101784.22
2022-10-29T12:09:43.726Z,101788.38
2022-10-29T12:14:49.236Z,101779.59
2022-10-29T12:19:57.320Z,101772.38
2022-10-29T12:25:21.747Z,101760.34
2022-10-29T12:30:23.610Z,101759.06
2022-10-29T12:35:30.820Z,101754.75
2022-10-29T12:40:32.656Z,101747.69
2022-10-29T12:45:53.044Z,101739.25
2022-10-29T12:51:09.722Z,101736.34
2022-10-29T12:56:10.746Z,101737.88
2022-10-29T13:07:23.786Z,101727.59
2022-10-29T13:13:01.504Z,101710.81
2022-10-29T13:18:19.397Z,101713.97
2022-10-29T13:24:02.847Z,101703.72
2022-10-29T13:29:02.007Z,101702.44
2022-10-29T13:34:00.824Z,101704.97
2022-10-29T13:39:08.254Z,101696.22
2022-10-29T13:44:12.705Z,101697.78
2022-10-29T13:49:16.933Z,101693.59
2022-10-29T13:59:36.872Z,101687.31
2022-10-29T14:04:40.386Z,101684.16
2022-10-29T14:09:45.551Z,101688.06
2022-10-29T14:14:52.989Z,101683.97
2022-10-29T14:19:53.585Z,101684.91
2022-10-29T14:24:53.862Z,101684.16
2022-10-29T14:29:54.702Z,101688.47
2022-10-29T14:34:54.991Z,101688.34
2022-10-29T14:39:59.480Z,101684.59
2022-10-29T14:45:01.291Z,101689.69
2022-10-29T14:50:02.979Z,101687.38
2022-10-29T14:55:07.954Z,101681.59
2022-10-29T15:00:08.441Z,101687.88
2022-10-29T15:05:24.660Z,101676.19
2022-10-29T15:10:26.574Z,101690.81
2022-10-29T15:15:28.807Z,101685.25
2022-10-29T15:20:32.760Z,101683.28
2022-10-29T15:25:36.790Z,101689.53
2022-10-29T15:30:37.435Z,101684.41
2022-10-29T15:35:37.089Z,101678.75
2022-10-29T15:40:37.491Z,101690.50
2022-10-29T15:45:36.644Z,101691.34
2022-10-29T15:50:42.926Z,101694.91
2022-10-29T15:55:43.368Z,101693.81
2022-10-29T16:00:42.182Z,101693.75
2022-10-29T16:05:41.553Z,101700.91
2022-10-29T16:10:40.711Z,101698.97
2022-10-29T16:15:44.085Z,101702.59
2022-10-29T16:20:43.498Z,101704.13
2022-10-29T16:25:43.247Z,101717.31
2022-10-29T16:30:44.296Z,101716.81
2022-10-29T16:35:43.325Z,101719.63
2022-10-29T16:40:46.765Z,101720.88
2022-10-29T16:45:50.428Z,101722.84
2022-10-29T16:50:55.184Z,101718.31
2022-10-29T16:56:03.050Z,101720.22
2022-10-29T17:01:12.825Z,101719.16
2022-10-29T17:06:12.339Z,101715.28
2022-10-29T17:11:11.108Z,101726.75
2022-10-29T17:16:14.836Z,101722.63
2022-10-29T17:21:13.719Z,101728.53
2022-10-29T17:26:12.618Z,101725.50
2022-10-29T17:31:12.979Z,101726.66
2022-10-29T17:36:14.130Z,101732.94
2022-10-29T17:41:21.311Z,101732.38
2022-10-29T17:46:21.931Z,101725.03
2022-10-29T17:51:21.022Z,101723.53
2022-10-29T17:56:20.120Z,101724.22
2022-10-29T18:01:19.399Z,101722.22
2022-10-29T18:06:20.462Z,101727.25
2022-10-29T18:11:21.545Z,101720.19
2022-10-29T18:16:22.780Z,101721.78
2022-10-29T18:21:25.080Z,101707.53
2022-10-29T18:26:27.554Z,101712.63
2022-10-29T18:31:27.520Z,101709.69
2022-10-29T18:36:27.876Z,101707.78
2022-10-29T18:41:27.463Z,101706.72
2022-10-29T18:46:26.729Z,101719.09
2022-10-29T18:51:36.676Z,101711.19
2022-10-29T18:56:38.155Z,101716.50
2022-10-29T19:01:38.534Z,101708.47
2022-10-29T19:06:40.588Z,101707.59
2022-10-29T19:11:39.744Z,101699.78
2022-10-29T19:16:44.036Z,101703.34
2022-10-29T19:21:44.729Z,101698.63
2022-10-29T19:26:48.731Z,101695.53
2022-10-29T19:31:54.836Z,101698.78
2022-10-29T19:36:57.628Z,101703.00
2022-10-29T19:42:02.764Z,101704.66
2022-10-29T19:47:01.930Z,101698.84
2022-10-29T19:52:03.219Z,101694.00
2022-10-29T19:57:08.471Z,101702.75
2022-10-29T20:02:07.296Z,101705.16
2022-10-29T20:07:12.367Z,101708.94
2022-10-29T20:12:11.983Z,101706.75
2022-10-29T20:17:13.614Z,101700.09
2022-10-29T20:22:15.244Z,101704.94
2022-10-29T20:27:17.284Z,101713.28
2022-10-29T20:32:19.981Z,101712.41
2022-10-29T20:37:20.431Z,101709.47
2022-10-29T20:42:19.338Z,101713.31
2022-10-29T20:47:18.317Z,101704.38
2022-10-29T20:52:17.155Z,101696.50
2022-10-29T20:57:17.495Z,101696.56
2022-10-29T21:02:16.351Z,101695.06
2022-10-29T21:07:18.992Z,101698.81
2022-10-29T21:12:19.347Z,101699.09
2022-10-29T21:17:18.178Z,101704.84
2022-10-29T21:22:19.231Z,101707.84
2022-10-29T21:27:19.591Z,101707.91
2022-10-29T21:32:18.517Z,101694.91
2022-10-29T21:37:17.727Z,101691.66
2022-10-29T21:42:31.383Z,101696.31
2022-10-29T21:47:30.235Z,101690.16
2022-10-29T21:52:29.170Z,101674.28
2022-10-29T21:57:29.384Z,101674.28
2022-10-29T22:02:29.443Z,101673.53
2022-10-29T22:07:28.367Z,101669.91
2022-10-29T22:12:27.327Z,101674.84
2022-10-29T22:17:28.672Z,101667.00
2022-10-29T22:22:27.602Z,101668.03
2022-10-29T22:27:26.497Z,101679.06
2022-10-29T22:32:25.323Z,101673.13
2022-10-29T22:37:25.742Z,101668.88
2022-10-29T22:42:24.637Z,101670.13
2022-10-29T22:47:23.491Z,101675.00
2022-10-29T22:52:22.700Z,101660.69
2022-10-29T22:57:23.103Z,101654.22
2022-10-29T23:02:22.073Z,101645.31
2022-10-29T23:07:21.277Z,101630.91
2022-10-29T23:12:20.287Z,101637.75
2022-10-29T23:17:20.667Z,101632.69
2022-10-29T23:22:20.972Z,101645.25
2022-10-29T23:27:22.235Z,101651.31
2022-10-29T23:32:23.385Z,101640.94
2022-10-29T23:37:22.234Z,101647.13
2022-10-29T23:42:21.188Z,101648.88
2022-10-29T23:47:20.068Z,101642.63
2022-10-29T23:52:20.429Z,101644.13
2022-10-29T23:57:19.394Z,101638.84
